createdAt,value
2019-04-04T00:00:14.313Z,54.22
2019-04-04T00:02:42.564Z,53.99
2019-04-04T00:05:09.361Z,53.67
2019-04-04T00:07:36.476Z,53.51
2019-04-04T00:10:05.163Z,53.57
2019-04-04T00:12:32.452Z,54.59
2019-04-04T00:14:59.173Z,54.70
2019-04-04T00:17:25.998Z,53.62
2019-04-04T00:19:52.715Z,53.19
2019-04-04T00:22:19.504Z,53.92
2019-04-04T00:24:46.259Z,53.03
2019-04-04T00:27:13.681Z,52.38
2019-04-04T00:29:40.800Z,51.54
2019-04-04T00:32:07.546Z,51.89
2019-04-04T00:34:34.346Z,52.40
2019-04-04T00:37:04.368Z,51.91
2019-04-04T00:39:29.988Z,51.54
2019-04-04T00:41:56.802Z,51.84
2019-04-04T00:44:23.747Z,51.94
2019-04-04T00:46:50.533Z,51.50
2019-04-04T00:49:17.256Z,52.18
2019-04-04T00:51:43.990Z,52.58
2019-04-04T00:54:12.070Z,52.18
2019-04-04T00:56:39.477Z,51.46
2019-04-04T00:59:06.367Z,52.32
2019-04-04T01:01:33.100Z,51.61
2019-04-04T01:04:01.020Z,51.38
2019-04-04T01:06:29.451Z,51.70
2019-04-04T01:08:56.239Z,51.54
2019-04-04T01:11:23.153Z,51.93
2019-04-04T01:13:50.204Z,52.00
2019-04-04T01:16:16.978Z,52.62
2019-04-04T01:18:43.710Z,52.55
2019-04-04T01:21:10.493Z,53.17
2019-04-04T01:23:37.551Z,54.39
2019-04-04T01:26:04.493Z,54.05
2019-04-04T01:28:31.222Z,53.54
2019-04-04T01:30:58.166Z,53.34
2019-04-04T01:33:24.961Z,53.30
2019-04-04T01:35:53.723Z,52.82
2019-04-04T01:38:20.411Z,52.81
2019-04-04T01:40:47.458Z,53.30
2019-04-04T01:43:14.169Z,52.92
2019-04-04T01:45:43.743Z,52.54
2019-04-04T01:48:09.564Z,53.01
2019-04-04T01:50:36.537Z,53.80
2019-04-04T01:53:03.315Z,53.21
2019-04-04T01:55:30.260Z,53.43
2019-04-04T01:57:57.110Z,53.63
2019-04-04T02:00:24.077Z,53.79
2019-04-04T02:02:51.898Z,53.34
2019-04-04T02:05:19.170Z,53.51
2019-04-04T02:07:46.009Z,54.05
2019-04-04T02:10:12.906Z,53.67
2019-04-04T02:12:39.661Z,55.03
2019-04-04T02:15:07.696Z,53.91
2019-04-04T02:17:34.436Z,53.73
2019-04-04T02:20:01.392Z,53.99
2019-04-04T02:22:30.625Z,54.09
2019-04-04T02:24:56.925Z,54.27
2019-04-04T02:27:23.767Z,54.81
2019-04-04T02:29:50.660Z,54.36
2019-04-04T02:32:19.317Z,53.99
2019-04-04T02:34:46.248Z,54.25
2019-04-04T02:37:13.054Z,55.83
2019-04-04T02:39:39.790Z,54.91
2019-04-04T02:42:06.617Z,54.46
2019-04-04T02:44:33.396Z,54.31
2019-04-04T02:47:00.175Z,55.04
2019-04-04T02:49:29.245Z,54.37
2019-04-04T02:51:55.858Z,54.24
2019-04-04T02:54:24.629Z,54.55
2019-04-04T02:56:51.216Z,55.72
2019-04-04T02:59:21.770Z,54.81
2019-04-04T03:01:48.842Z,54.98
2019-04-04T03:04:15.631Z,54.53
2019-04-04T03:06:42.378Z,54.26
2019-04-04T03:09:10.393Z,54.07
2019-04-04T03:11:37.480Z,55.90
2019-04-04T03:14:04.766Z,55.76
2019-04-04T03:16:31.688Z,56.48
2019-04-04T03:18:58.463Z,55.18
2019-04-04T03:21:25.721Z,55.53
2019-04-04T03:23:52.496Z,54.76
2019-04-04T03:26:20.597Z,56.30
2019-04-04T03:28:47.523Z,55.19
2019-04-04T03:31:14.573Z,54.92
2019-04-04T03:33:41.373Z,54.75
2019-04-04T03:36:08.190Z,55.55
2019-04-04T03:38:35.171Z,55.38
2019-04-04T03:41:02.069Z,55.69
2019-04-04T03:43:28.835Z,55.79
2019-04-04T03:46:00.154Z,56.58
2019-04-04T03:48:24.304Z,55.73
2019-04-04T03:50:51.394Z,57.12
2019-04-04T03:53:20.094Z,56.80
2019-04-04T03:55:46.808Z,56.56
2019-04-04T03:58:13.582Z,57.68
2019-04-04T04:00:40.715Z,57.03
2019-04-04T04:03:07.593Z,57.95
2019-04-04T04:05:36.639Z,58.28
2019-04-04T04:08:03.321Z,57.61
2019-04-04T04:10:33.434Z,58.63
2019-04-04T04:12:59.182Z,59.04
2019-04-04T04:15:29.042Z,59.71
2019-04-04T04:17:55.222Z,58.73
2019-04-04T04:20:22.772Z,59.42
2019-04-04T04:22:50.923Z,58.96
2019-04-04T04:25:18.221Z,59.14
2019-04-04T04:27:48.499Z,59.19
2019-04-04T04:30:13.839Z,60.23
2019-04-04T04:32:40.629Z,60.28
2019-04-04T04:35:09.138Z,59.24
2019-04-04T04:37:36.163Z,60.23
2019-04-04T04:40:04.151Z,60.92
2019-04-04T04:42:30.882Z,59.88
2019-04-04T04:44:57.863Z,59.42
2019-04-04T04:47:24.603Z,59.53
2019-04-04T04:49:51.346Z,59.19
2019-04-04T04:52:18.443Z,60.21
2019-04-04T04:54:45.295Z,60.09
2019-04-04T04:57:28.153Z,59.78
2019-04-04T04:59:40.757Z,60.38
2019-04-04T05:02:07.650Z,60.46
2019-04-04T05:04:34.425Z,60.83
2019-04-04T05:07:01.212Z,59.89
2019-04-04T05:09:27.923Z,60.62
2019-04-04T05:11:54.827Z,59.82
2019-04-04T05:14:21.677Z,59.59
2019-04-04T05:16:48.451Z,58.30
2019-04-04T05:19:15.289Z,59.29
2019-04-04T05:21:42.279Z,58.59
2019-04-04T05:24:09.060Z,58.81
2019-04-04T05:26:38.516Z,58.43
2019-04-04T05:29:04.608Z,57.13
2019-04-04T05:31:31.363Z,57.65
2019-04-04T05:33:59.173Z,57.67
2019-04-04T05:36:26.478Z,57.05
2019-04-04T05:38:53.249Z,56.92
2019-04-04T05:41:20.413Z,56.80
2019-04-04T05:43:47.167Z,56.01
2019-04-04T05:46:13.918Z,56.09
2019-04-04T05:48:40.775Z,54.70
2019-04-04T05:51:07.753Z,53.47
2019-04-04T05:53:35.429Z,54.37
2019-04-04T05:56:06.151Z,55.47
2019-04-04T05:58:31.845Z,54.61
2019-04-04T06:01:01.504Z,53.36
2019-04-04T06:03:27.781Z,53.70
2019-04-04T06:05:54.720Z,52.88
2019-04-04T06:08:21.513Z,51.75
2019-04-04T06:10:50.089Z,51.02
2019-04-04T06:13:17.006Z,50.29
2019-04-04T06:15:43.969Z,49.69
2019-04-04T06:18:11.812Z,48.70
2019-04-04T06:20:38.945Z,48.58
2019-04-04T06:23:05.774Z,47.60
2019-04-04T06:25:35.658Z,45.37
2019-04-04T06:28:01.316Z,44.36
2019-04-04T06:30:28.251Z,41.92
2019-04-04T06:32:54.971Z,40.68
2019-04-04T06:35:21.754Z,42.09
2019-04-04T06:37:51.338Z,42.05
2019-04-04T06:40:18.252Z,42.06
2019-04-04T06:42:45.195Z,41.26
2019-04-04T06:45:15.493Z,39.46
2019-04-04T06:47:42.953Z,39.69
2019-04-04T06:50:09.673Z,38.60
2019-04-04T06:52:36.814Z,37.79
2019-04-04T06:55:05.443Z,39.90
2019-04-04T06:57:32.205Z,38.12
2019-04-04T06:59:59.021Z,37.51
2019-04-04T07:02:25.809Z,38.18
2019-04-04T07:04:53.435Z,39.38
2019-04-04T07:07:20.322Z,38.16
2019-04-04T07:09:48.238Z,37.42
2019-04-04T07:12:24.424Z,37.21
2019-04-04T07:14:45.885Z,35.73
2019-04-04T07:17:16.176Z,35.72
2019-04-04T07:19:43.996Z,35.79
2019-04-04T07:22:10.907Z,34.89
2019-04-04T07:24:38.459Z,35.99
2019-04-04T07:27:05.270Z,36.77
2019-04-04T07:29:32.116Z,38.62
2019-04-04T07:31:59.749Z,40.68
2019-04-04T07:34:26.560Z,39.67
2019-04-04T07:36:53.470Z,40.38
2019-04-04T07:39:20.298Z,40.18
2019-04-04T07:41:47.286Z,40.68
2019-04-04T07:44:14.113Z,39.49
2019-04-04T07:46:41.931Z,40.26
2019-04-04T07:49:09.580Z,38.33
2019-04-04T07:51:36.345Z,39.38
2019-04-04T07:54:03.121Z,38.57
2019-04-04T07:56:29.972Z,38.41
2019-04-04T07:58:56.825Z,37.38
2019-04-04T08:01:23.658Z,40.01
2019-04-04T08:03:50.417Z,40.23
2019-04-04T08:06:17.238Z,40.14
2019-04-04T08:08:44.114Z,40.93
2019-04-04T08:11:13.229Z,39.48
2019-04-04T08:13:39.675Z,38.65
2019-04-04T08:16:06.902Z,38.91
2019-04-04T08:18:35.184Z,41.03
2019-04-04T08:21:02.023Z,37.63
2019-04-04T08:23:28.819Z,36.28
2019-04-04T08:25:55.629Z,35.30
2019-04-04T08:28:22.531Z,37.39
2019-04-04T08:30:49.435Z,35.83
2019-04-04T08:33:16.227Z,35.70
2019-04-04T08:35:43.335Z,33.58
2019-04-04T08:38:10.442Z,33.53
2019-04-04T08:40:37.386Z,35.64
2019-04-04T08:43:04.175Z,34.40
2019-04-04T08:45:30.979Z,34.66
2019-04-04T08:47:57.745Z,35.02
2019-04-04T08:50:24.492Z,37.58
2019-04-04T08:52:51.451Z,37.15
2019-04-04T08:55:18.313Z,37.37
2019-04-04T08:57:45.208Z,36.81
2019-04-04T09:00:12.189Z,37.29
2019-04-04T09:02:39.000Z,35.33
2019-04-04T09:05:11.782Z,36.00
2019-04-04T09:07:34.760Z,36.71
2019-04-04T09:10:02.202Z,34.61
2019-04-04T09:12:28.966Z,34.29
2019-04-04T09:14:56.143Z,35.71
2019-04-04T09:17:23.110Z,33.89
2019-04-04T09:19:49.923Z,35.29
2019-04-04T09:22:16.935Z,35.78
2019-04-04T09:24:43.681Z,34.81
2019-04-04T09:27:10.450Z,34.44
2019-04-04T09:29:37.338Z,34.74
2019-04-04T09:32:04.171Z,34.10
2019-04-04T09:34:30.932Z,34.02
2019-04-04T09:36:57.710Z,33.88
2019-04-04T09:39:24.727Z,32.50
2019-04-04T09:41:51.467Z,32.41
2019-04-04T09:44:18.250Z,31.30
2019-04-04T09:46:45.914Z,32.13
2019-04-04T09:49:13.085Z,32.29
2019-04-04T09:51:40.128Z,33.59
2019-04-04T09:54:06.947Z,31.18
2019-04-04T09:56:33.741Z,30.00
2019-04-04T09:59:00.606Z,29.94
2019-04-04T10:01:27.690Z,30.62
2019-04-04T10:03:54.436Z,29.83
2019-04-04T10:06:21.201Z,28.68
2019-04-04T10:08:47.967Z,28.08
2019-04-04T10:11:14.780Z,28.03
2019-04-04T10:13:41.655Z,28.55
2019-04-04T10:16:08.411Z,28.27
2019-04-04T10:18:35.564Z,27.55
2019-04-04T10:21:11.853Z,27.87
2019-04-04T10:23:31.773Z,26.39
2019-04-04T10:25:58.824Z,27.01
2019-04-04T10:28:25.602Z,27.31
2019-04-04T10:30:52.412Z,26.03
2019-04-04T10:33:19.162Z,26.87
2019-04-04T10:35:46.068Z,26.49
2019-04-04T10:38:12.891Z,25.32
2019-04-04T10:40:39.718Z,28.75
2019-04-04T10:43:06.678Z,27.31
2019-04-04T10:45:33.560Z,28.41
2019-04-04T10:48:00.315Z,23.09
2019-04-04T10:50:27.509Z,22.99
2019-04-04T10:52:54.460Z,22.64
2019-04-04T10:55:21.382Z,23.38
2019-04-04T10:57:48.171Z,22.53
2019-04-04T11:00:15.246Z,22.81
2019-04-04T11:02:42.363Z,22.86
2019-04-04T11:05:09.978Z,23.00
2019-04-04T11:07:36.726Z,22.99
2019-04-04T11:10:04.599Z,22.25
2019-04-04T11:12:34.124Z,22.48
2019-04-04T11:15:00.358Z,23.59
2019-04-04T11:17:27.296Z,22.65
2019-04-04T11:19:54.731Z,22.86
2019-04-04T11:22:21.600Z,22.61
2019-04-04T11:24:48.366Z,22.06
2019-04-04T11:27:17.484Z,21.80
2019-04-04T11:29:43.976Z,21.70
2019-04-04T11:32:10.866Z,21.37
2019-04-04T11:34:37.636Z,21.37
2019-04-04T11:37:04.470Z,21.69
2019-04-04T11:39:31.449Z,21.62
2019-04-04T11:41:58.282Z,22.72
2019-04-04T11:44:25.094Z,22.94
2019-04-04T11:46:51.893Z,22.60
2019-04-04T11:49:18.872Z,22.93
2019-04-04T11:51:45.601Z,22.25
2019-04-04T11:54:12.355Z,22.03
2019-04-04T11:56:39.242Z,22.25
2019-04-04T11:59:08.171Z,22.04
2019-04-04T12:01:39.342Z,22.62
2019-04-04T12:04:06.070Z,22.63
2019-04-04T12:06:33.022Z,22.69
2019-04-04T12:08:59.856Z,22.22
2019-04-04T12:11:26.740Z,22.88
2019-04-04T12:13:53.499Z,22.95
2019-04-04T12:16:20.348Z,22.77
2019-04-04T12:18:47.169Z,22.69
2019-04-04T12:21:14.007Z,22.36
2019-04-04T12:23:40.795Z,22.34
2019-04-04T12:26:09.183Z,22.54
2019-04-04T12:28:37.253Z,22.44
2019-04-04T12:31:04.197Z,22.73
2019-04-04T12:33:30.971Z,23.04
2019-04-04T12:35:57.759Z,23.46
2019-04-04T12:38:24.772Z,23.05
2019-04-04T12:40:51.537Z,23.00
2019-04-04T12:43:18.254Z,22.66
2019-04-04T12:45:45.047Z,22.66
2019-04-04T12:48:11.883Z,22.02
2019-04-04T12:50:38.652Z,21.77
2019-04-04T12:53:05.416Z,21.37
2019-04-04T12:55:32.379Z,21.08
2019-04-04T12:57:59.280Z,21.04
2019-04-04T13:00:26.131Z,21.21
2019-04-04T13:02:52.863Z,21.26
2019-04-04T13:05:20.127Z,21.48
2019-04-04T13:07:47.060Z,21.81
2019-04-04T13:10:15.014Z,22.12
2019-04-04T13:12:41.823Z,21.29
2019-04-04T13:15:08.845Z,20.96
2019-04-04T13:17:35.714Z,20.78
2019-04-04T13:20:04.425Z,21.21
2019-04-04T13:22:31.389Z,21.63
2019-04-04T13:24:58.231Z,21.34
2019-04-04T13:27:25.021Z,21.87
2019-04-04T13:29:51.852Z,21.61
2019-04-04T13:32:18.777Z,21.36
2019-04-04T13:34:58.358Z,21.64
2019-04-04T13:37:14.303Z,22.23
2019-04-04T13:39:41.124Z,22.41
2019-04-04T13:42:08.087Z,22.51
2019-04-04T13:47:47.903Z,23.10
2019-04-04T13:50:14.843Z,23.30
2019-04-04T13:52:41.935Z,23.09
2019-04-04T13:55:15.398Z,22.83
2019-04-04T13:57:42.443Z,22.95
2019-04-04T14:00:09.692Z,22.94
2019-04-04T14:02:38.336Z,22.86
2019-04-04T14:05:10.011Z,23.23
2019-04-04T14:07:35.917Z,23.24
2019-04-04T14:10:05.566Z,23.40
2019-04-04T14:12:32.180Z,24.34
2019-04-04T14:14:59.045Z,24.42
2019-04-04T14:17:26.163Z,24.99
2019-04-04T14:19:52.945Z,25.30
2019-04-04T14:22:19.774Z,25.34
2019-04-04T14:24:46.989Z,24.85
2019-04-04T14:27:13.738Z,24.93
2019-04-04T14:29:40.618Z,25.23
2019-04-04T14:32:07.447Z,25.31
2019-04-04T14:34:34.399Z,25.92
2019-04-04T14:37:01.127Z,26.31
2019-04-04T14:39:27.972Z,26.22
2019-04-04T14:41:54.811Z,26.64
2019-04-04T14:44:21.718Z,26.75
2019-04-04T14:46:51.105Z,26.80
2019-04-04T14:49:18.457Z,26.76
2019-04-04T14:51:45.218Z,26.96
2019-04-04T14:54:12.008Z,26.88
2019-04-04T14:56:38.932Z,26.95
2019-04-04T14:59:05.713Z,27.10
2019-04-04T15:01:34.930Z,27.06
2019-04-04T15:04:01.109Z,27.00
2019-04-04T15:06:27.913Z,27.23
2019-04-04T15:08:54.635Z,27.37
2019-04-04T15:11:24.474Z,27.54
2019-04-04T15:13:50.186Z,27.72
2019-04-04T15:16:17.068Z,27.50
2019-04-04T15:18:43.897Z,27.59
2019-04-04T15:21:10.762Z,27.55
2019-04-04T15:23:37.557Z,27.54
2019-04-04T15:26:04.358Z,27.52
2019-04-04T15:28:31.194Z,27.60
2019-04-04T15:30:58.025Z,27.67
2019-04-04T15:33:24.801Z,27.73
2019-04-04T15:35:51.729Z,27.84
2019-04-04T15:38:18.652Z,27.93
2019-04-04T15:40:45.437Z,28.10
2019-04-04T15:43:12.233Z,28.03
2019-04-04T15:45:39.317Z,28.06
2019-04-04T15:48:06.284Z,28.24
2019-04-04T15:50:33.107Z,29.26
2019-04-04T15:53:00.209Z,28.52
2019-04-04T15:55:26.999Z,28.90
2019-04-04T15:57:53.781Z,28.94
2019-04-04T16:00:20.560Z,29.36
2019-04-04T16:02:47.553Z,29.23
2019-04-04T16:05:14.324Z,29.34
2019-04-04T16:07:41.065Z,29.48
2019-04-04T16:10:08.155Z,29.44
2019-04-04T16:12:34.963Z,29.86
2019-04-04T16:15:01.860Z,29.69
2019-04-04T16:17:28.599Z,29.85
2019-04-04T16:19:55.452Z,30.48
2019-04-04T16:22:22.211Z,29.95
2019-04-04T16:24:48.962Z,30.36
2019-04-04T16:27:16.299Z,30.33
2019-04-04T16:29:44.276Z,30.65
2019-04-04T16:32:13.039Z,30.49
2019-04-04T16:34:39.785Z,31.17
2019-04-04T16:37:06.661Z,30.84
2019-04-04T16:39:35.496Z,31.66
2019-04-04T16:42:02.796Z,31.01
2019-04-04T16:44:29.797Z,31.14
2019-04-04T16:46:56.593Z,31.22
2019-04-04T16:49:23.399Z,31.21
2019-04-04T16:51:50.201Z,31.36
2019-04-04T16:54:17.054Z,31.45
2019-04-04T16:56:43.927Z,31.52
2019-04-04T16:59:10.620Z,31.87
2019-04-04T17:01:37.420Z,31.88
2019-04-04T17:04:04.205Z,32.04
2019-04-04T17:06:31.180Z,32.28
2019-04-04T17:08:57.968Z,32.32
2019-04-04T17:11:24.713Z,32.39
2019-04-04T17:13:51.582Z,32.96
2019-04-04T17:16:21.178Z,32.77
2019-04-04T17:18:47.140Z,33.25
2019-04-04T17:21:13.906Z,33.25
2019-04-04T17:23:41.079Z,33.45
2019-04-04T17:26:07.886Z,33.60
2019-04-04T17:28:34.637Z,33.75
2019-04-04T17:31:01.493Z,34.47
2019-04-04T17:33:28.741Z,34.09
2019-04-04T17:35:55.839Z,34.19
2019-04-04T17:38:22.633Z,34.41
2019-04-04T17:40:49.427Z,34.53
2019-04-04T17:43:16.208Z,34.72
2019-04-04T17:45:43.026Z,34.76
2019-04-04T17:48:09.832Z,35.03
2019-04-04T17:50:36.822Z,35.24
2019-04-04T17:53:03.610Z,35.27
2019-04-04T17:55:30.389Z,35.42
2019-04-04T17:57:57.966Z,35.54
2019-04-04T18:00:25.700Z,35.81
2019-04-04T18:02:52.568Z,35.91
2019-04-04T18:05:19.502Z,35.98
2019-04-04T18:07:46.477Z,36.21
2019-04-04T18:10:13.443Z,36.20
2019-04-04T18:12:41.000Z,36.47
2019-04-04T18:15:09.065Z,36.59
2019-04-04T18:17:35.934Z,36.67
2019-04-04T18:20:06.448Z,36.70
2019-04-04T18:22:36.032Z,36.87
2019-04-04T18:25:05.024Z,36.93
2019-04-04T18:27:31.944Z,36.95
2019-04-04T18:29:59.104Z,37.16
2019-04-04T18:32:25.928Z,37.31
2019-04-04T18:34:52.744Z,37.29
2019-04-04T18:37:19.702Z,37.49
2019-04-04T18:39:46.527Z,37.29
2019-04-04T18:42:13.401Z,37.26
2019-04-04T18:44:40.595Z,37.29
2019-04-04T18:47:07.329Z,37.29
2019-04-04T18:49:34.253Z,37.26
2019-04-04T18:52:01.008Z,37.55
2019-04-04T18:54:27.990Z,37.43
2019-04-04T18:56:54.756Z,37.50
2019-04-04T18:59:21.590Z,37.63
2019-04-04T19:01:48.722Z,37.68
2019-04-04T19:04:15.502Z,37.75
2019-04-04T19:06:42.326Z,37.97
2019-04-04T19:09:15.228Z,38.09
2019-04-04T19:11:40.038Z,38.18
2019-04-04T19:14:06.791Z,38.35
2019-04-04T19:16:33.561Z,38.44
2019-04-04T19:19:00.341Z,38.51
2019-04-04T19:21:27.170Z,38.64
2019-04-04T19:23:54.096Z,38.81
2019-04-04T19:26:21.033Z,38.93
2019-04-04T19:28:47.752Z,38.98
2019-04-04T19:31:14.733Z,39.51
2019-04-04T19:33:41.653Z,39.35
2019-04-04T19:36:10.041Z,39.49
2019-04-04T19:38:36.842Z,39.56
2019-04-04T19:41:04.056Z,39.49
2019-04-04T19:43:30.767Z,39.61
2019-04-04T19:45:57.577Z,39.64
2019-04-04T19:48:24.664Z,39.75
2019-04-04T19:50:51.994Z,39.78
2019-04-04T19:53:18.757Z,39.97
2019-04-04T19:55:45.550Z,40.13
2019-04-04T19:58:12.450Z,40.60
2019-04-04T20:00:39.250Z,41.27
2019-04-04T20:03:06.002Z,41.78
2019-04-04T20:05:32.862Z,41.53
2019-04-04T20:07:59.720Z,41.41
2019-04-04T20:10:26.480Z,42.07
2019-04-04T20:12:53.647Z,42.46
2019-04-04T20:15:20.690Z,42.46
2019-04-04T20:17:47.469Z,41.78
2019-04-04T20:20:14.369Z,41.64
2019-04-04T20:22:43.602Z,42.34
2019-04-04T20:25:10.375Z,41.87
2019-04-04T20:27:37.464Z,41.86
2019-04-04T20:30:06.297Z,41.82
2019-04-04T20:32:33.026Z,43.40
2019-04-04T20:34:59.929Z,44.56
2019-04-04T20:37:26.726Z,44.62
2019-04-04T20:39:53.625Z,44.15
2019-04-04T20:42:20.402Z,44.35
2019-04-04T20:44:47.228Z,44.34
2019-04-04T20:47:14.017Z,45.01
2019-04-04T20:49:40.747Z,44.85
2019-04-04T20:52:07.514Z,45.17
2019-04-04T20:54:34.454Z,44.71
2019-04-04T20:57:01.222Z,45.46
2019-04-04T20:59:28.343Z,44.92
2019-04-04T21:01:55.696Z,44.80
2019-04-04T21:04:22.481Z,43.98
2019-04-04T21:06:49.377Z,43.56
2019-04-04T21:09:16.190Z,45.26
2019-04-04T21:11:43.148Z,47.14
2019-04-04T21:14:09.937Z,46.69
2019-04-04T21:16:36.769Z,45.88
2019-04-04T21:19:03.604Z,45.81
2019-04-04T21:21:30.343Z,45.92
2019-04-04T21:23:57.241Z,45.57
2019-04-04T21:26:23.991Z,46.79
2019-04-04T21:28:50.799Z,47.86
2019-04-04T21:31:17.610Z,47.96
2019-04-04T21:33:44.380Z,47.51
2019-04-04T21:36:11.160Z,48.46
2019-04-04T21:38:38.024Z,47.99
2019-04-04T21:41:04.751Z,48.46
2019-04-04T21:43:31.928Z,48.75
2019-04-04T21:45:58.677Z,48.21
2019-04-04T21:48:25.445Z,47.65
2019-04-04T21:50:52.258Z,47.87
2019-04-04T21:53:19.099Z,47.29
2019-04-04T21:55:45.841Z,48.04
2019-04-04T21:58:12.700Z,47.70
2019-04-04T22:00:43.409Z,47.29
2019-04-04T22:03:10.248Z,46.86
2019-04-04T22:05:37.288Z,46.19
2019-04-04T22:08:04.142Z,46.31
2019-04-04T22:10:30.924Z,46.82
2019-04-04T22:12:57.689Z,46.07
2019-04-04T22:15:24.649Z,46.55
2019-04-04T22:17:53.033Z,46.87
2019-04-04T22:20:19.748Z,46.47
2019-04-04T22:22:46.557Z,47.51
2019-04-04T22:25:13.827Z,47.04
2019-04-04T22:27:40.578Z,47.17
2019-04-04T22:30:07.344Z,47.89
2019-04-04T22:32:34.644Z,47.23
2019-04-04T22:35:01.464Z,47.14
2019-04-04T22:37:29.573Z,47.42
2019-04-04T22:39:56.469Z,48.43
2019-04-04T22:42:23.524Z,48.96
2019-04-04T22:44:50.312Z,49.35
2019-04-04T22:47:17.054Z,48.52
2019-04-04T22:49:43.778Z,48.33
2019-04-04T22:52:10.652Z,49.71
2019-04-04T22:54:37.435Z,49.07
2019-04-04T22:57:04.181Z,49.20
2019-04-04T22:59:30.956Z,49.10
2019-04-04T23:01:58.675Z,48.76
2019-04-04T23:04:25.496Z,48.54
2019-04-04T23:06:52.679Z,48.77
2019-04-04T23:09:19.595Z,49.67
2019-04-04T23:11:46.365Z,48.79
2019-04-04T23:14:13.181Z,49.56
2019-04-04T23:16:40.028Z,50.16
2019-04-04T23:19:06.790Z,50.08
2019-04-04T23:21:33.563Z,50.24
2019-04-04T23:24:00.515Z,49.87
2019-04-04T23:26:27.294Z,50.05
2019-04-04T23:28:54.060Z,49.75
2019-04-04T23:31:20.787Z,50.22
2019-04-04T23:33:47.649Z,49.79
2019-04-04T23:36:14.440Z,50.89
2019-04-04T23:38:41.181Z,50.52
2019-04-04T23:41:08.520Z,50.07
2019-04-04T23:43:35.384Z,50.75
2019-04-04T23:46:02.179Z,50.66
2019-04-04T23:48:29.059Z,50.75
2019-04-04T23:50:55.825Z,49.94
2019-04-04T23:53:22.611Z,49.23
2019-04-04T23:55:49.408Z,49.63
2019-04-04T23:58:16.122Z,49.52
